CEU9 weather

Trout Lake Airport
Trout Lake, Northwest Territories, Canada

Public forecast

Using degrees Celsius for public forecast. Weather courtesy of forecast.io.

Closest aviation weather report (METAR) to Trout Lake Airport

Closest report is Fort Liard Airport, 67.4 nm (124.9 km) W. Retrieved 2019/10/18 17:00 UTC (15 minutes ago):

CYJF 181700Z 06005KT 1 1/2SM -SN BR BKN010 OVC025 M00/M01 A2942 RMK SN2ST5SC1 CIG VRB 8-12 SLP974

Closest aviation forecast (TAF) to Trout Lake Airport

Closest forecast is Fort Simpson Airport, 79.3 nm (146.9 km) N. Retrieved 2019/10/18 12:42 UTC (5 hours ago):

TAF CYFS 181139Z 1812/1824 VRB03KT 3/4SM -SN BR OVC003 TEMPO 1812/1818 3SM BR OVC015 PROB30 1812/1818 1/2SM -FZDZ FZFG OVC002 FM181800 32008KT P6SM SCT007 BKN025 TEMPO 1818/1824 3SM -SN BKN007 OVC020 RMK NXT FCST BY 181800Z